createdAt,value
2018-08-13T00:00:46.799Z,1.62
2018-08-13T00:01:52.989Z,1.50
2018-08-13T00:02:59.438Z,1.70
2018-08-13T00:04:05.292Z,2.10
2018-08-13T00:05:10.973Z,1.60
2018-08-13T00:06:16.975Z,1.40
2018-08-13T00:07:23.326Z,1.70
2018-08-13T00:08:28.986Z,1.58
2018-08-13T00:09:34.864Z,1.60
2018-08-13T00:10:40.485Z,1.60
2018-08-13T00:11:46.144Z,1.45
2018-08-13T00:12:53.131Z,1.60
2018-08-13T00:13:58.419Z,1.48
2018-08-13T00:15:04.121Z,1.30
2018-08-13T00:16:10.119Z,1.92
2018-08-13T00:17:16.104Z,1.80
2018-08-13T00:18:22.168Z,1.35
2018-08-13T00:19:28.440Z,1.90
2018-08-13T00:20:34.232Z,1.60
2018-08-13T00:21:40.262Z,1.95
2018-08-13T00:22:46.185Z,1.77
2018-08-13T00:23:52.078Z,1.20
2018-08-13T00:24:58.342Z,1.50
2018-08-13T00:26:04.442Z,1.40
2018-08-13T00:27:10.715Z,1.40
2018-08-13T00:28:16.956Z,1.73
2018-08-13T00:29:23.265Z,1.62
2018-08-13T00:30:28.997Z,1.55
2018-08-13T00:31:35.408Z,1.60
2018-08-13T00:32:41.879Z,1.80
2018-08-13T00:33:48.109Z,1.70
2018-08-13T00:34:54.443Z,1.60
2018-08-13T00:36:00.037Z,1.50
2018-08-13T00:37:05.732Z,1.50
2018-08-13T00:38:12.041Z,1.70
2018-08-13T00:39:18.544Z,1.85
2018-08-13T00:40:25.359Z,1.65
2018-08-13T00:41:31.225Z,1.77
2018-08-13T00:42:37.242Z,1.50
2018-08-13T00:43:43.132Z,1.80
2018-08-13T00:44:49.166Z,1.50
2018-08-13T00:45:55.239Z,1.70
2018-08-13T00:47:01.728Z,1.50
2018-08-13T00:48:07.313Z,1.40
2018-08-13T00:49:13.020Z,1.90
2018-08-13T00:50:18.669Z,1.40
2018-08-13T00:51:24.551Z,1.60
2018-08-13T00:52:30.475Z,1.83
2018-08-13T00:53:37.018Z,1.77
2018-08-13T00:54:43.439Z,1.33
2018-08-13T00:55:48.773Z,1.65
2018-08-13T00:56:54.480Z,1.48
2018-08-13T00:58:00.391Z,1.90
2018-08-13T00:59:06.812Z,1.80
2018-08-13T01:00:12.162Z,1.60
2018-08-13T01:01:17.750Z,1.67
2018-08-13T01:02:23.797Z,1.60
2018-08-13T01:03:29.775Z,1.42
2018-08-13T01:04:35.473Z,1.40
2018-08-13T01:05:41.175Z,1.60
2018-08-13T01:06:47.124Z,1.60
2018-08-13T01:07:52.804Z,1.58
2018-08-13T01:08:58.783Z,1.75
2018-08-13T01:10:04.477Z,1.77
2018-08-13T01:11:10.517Z,1.75
2018-08-13T01:12:16.738Z,1.50
2018-08-13T01:13:22.949Z,1.60
2018-08-13T01:14:29.847Z,2.28
2018-08-13T01:15:35.710Z,1.60
2018-08-13T01:16:42.094Z,1.40
2018-08-13T01:17:47.850Z,1.70
2018-08-13T01:18:53.086Z,1.90
2018-08-13T01:19:59.516Z,2.10
2018-08-13T01:21:05.248Z,1.40
2018-08-13T01:22:11.276Z,2.15
2018-08-13T01:23:17.173Z,1.95
2018-08-13T01:24:23.575Z,1.77
2018-08-13T01:25:30.304Z,1.92
2018-08-13T01:26:35.664Z,1.70
2018-08-13T01:27:40.939Z,1.60
2018-08-13T01:28:46.967Z,2.10
2018-08-13T01:29:53.028Z,1.60
2018-08-13T01:30:58.690Z,1.52
2018-08-13T01:32:04.345Z,1.77
2018-08-13T01:33:11.000Z,1.73
2018-08-13T01:34:16.968Z,1.60
2018-08-13T01:35:23.600Z,1.55
2018-08-13T01:36:29.520Z,1.70
2018-08-13T01:37:35.526Z,1.83
2018-08-13T01:38:41.516Z,1.75
2018-08-13T01:39:47.864Z,1.70
2018-08-13T01:40:54.047Z,1.92
2018-08-13T01:42:00.294Z,1.50
2018-08-13T01:43:06.163Z,1.50
2018-08-13T01:44:12.554Z,1.62
2018-08-13T01:45:19.592Z,1.90
2018-08-13T01:46:25.856Z,1.98
2018-08-13T01:47:31.864Z,1.85
2018-08-13T01:48:38.126Z,1.65
2018-08-13T01:49:44.392Z,1.62
2018-08-13T01:50:50.640Z,1.73
2018-08-13T01:51:56.871Z,1.80
2018-08-13T01:53:02.431Z,1.70
2018-08-13T01:54:08.403Z,1.52
2018-08-13T01:55:14.081Z,1.75
2018-08-13T01:56:19.756Z,1.87
2018-08-13T01:57:26.133Z,2.17
2018-08-13T01:58:31.775Z,2.50
2018-08-13T01:59:37.435Z,1.87
2018-08-13T02:00:43.870Z,1.60
2018-08-13T02:01:50.351Z,1.60
2018-08-13T02:02:56.183Z,1.48
2018-08-13T02:04:02.288Z,1.80
2018-08-13T02:05:08.308Z,1.95
2018-08-13T02:06:14.124Z,1.70
2018-08-13T02:07:20.149Z,2.30
2018-08-13T02:08:26.148Z,2.20
2018-08-13T02:09:32.159Z,1.80
2018-08-13T02:10:38.072Z,1.50
2018-08-13T02:11:44.117Z,1.83
2018-08-13T02:12:50.393Z,2.10
2018-08-13T02:13:56.712Z,1.70
2018-08-13T02:15:03.131Z,1.80
2018-08-13T02:16:09.144Z,1.58
2018-08-13T02:17:14.751Z,1.80
2018-08-13T02:18:20.480Z,1.67
2018-08-13T02:19:26.248Z,1.50
2018-08-13T02:20:32.921Z,1.85
2018-08-13T02:21:38.916Z,1.75
2018-08-13T02:22:45.767Z,1.77
2018-08-13T02:23:52.126Z,2.00
2018-08-13T02:24:57.706Z,2.15
2018-08-13T02:26:03.420Z,1.80
2018-08-13T02:27:09.800Z,2.08
2018-08-13T02:28:15.743Z,1.80
2018-08-13T02:29:21.771Z,2.05
2018-08-13T02:30:28.263Z,2.05
2018-08-13T02:31:33.973Z,2.25
2018-08-13T02:32:40.328Z,1.80
2018-08-13T02:33:46.304Z,2.30
2018-08-13T02:34:52.489Z,1.80
2018-08-13T02:35:58.880Z,1.90
2018-08-13T02:37:05.391Z,1.73
2018-08-13T02:38:11.728Z,2.25
2018-08-13T02:39:17.725Z,1.80
2018-08-13T02:40:24.244Z,2.35
2018-08-13T02:41:30.204Z,2.10
2018-08-13T02:42:36.293Z,1.60
2018-08-13T02:43:42.194Z,2.50
2018-08-13T02:44:48.216Z,1.85
2018-08-13T02:45:54.111Z,2.22
2018-08-13T02:47:00.033Z,1.98
2018-08-13T02:48:06.115Z,2.00
2018-08-13T02:49:11.712Z,1.70
2018-08-13T02:50:18.051Z,2.05
2018-08-13T02:51:24.413Z,2.10
2018-08-13T02:52:30.206Z,1.73
2018-08-13T02:53:35.889Z,1.60
2018-08-13T02:54:42.889Z,1.83
2018-08-13T02:55:48.413Z,2.08
2018-08-13T02:56:54.144Z,2.25
2018-08-13T02:58:00.097Z,1.75
2018-08-13T02:59:05.909Z,2.17
2018-08-13T03:00:11.297Z,1.92
2018-08-13T03:01:17.365Z,1.67
2018-08-13T03:02:23.234Z,1.87
2018-08-13T03:03:28.961Z,1.92
2018-08-13T03:04:35.003Z,2.20
2018-08-13T03:05:41.432Z,2.03
2018-08-13T03:06:47.821Z,1.90
2018-08-13T03:07:54.186Z,2.20
2018-08-13T03:09:00.449Z,1.87
2018-08-13T03:10:06.061Z,1.90
2018-08-13T03:11:12.074Z,2.00
2018-08-13T03:12:18.025Z,2.30
2018-08-13T03:13:23.394Z,1.70
2018-08-13T03:14:29.296Z,2.85
2018-08-13T03:15:35.745Z,1.87
2018-08-13T03:16:41.724Z,2.17
2018-08-13T03:17:47.652Z,2.42
2018-08-13T03:18:53.570Z,2.00
2018-08-13T03:19:59.218Z,1.70
2018-08-13T03:21:05.095Z,1.80
2018-08-13T03:22:12.488Z,2.10
2018-08-13T03:23:18.889Z,2.50
2018-08-13T03:24:24.796Z,2.30
2018-08-13T03:25:31.410Z,2.30
2018-08-13T03:26:37.899Z,2.00
2018-08-13T03:27:43.450Z,2.60
2018-08-13T03:28:49.504Z,2.10
2018-08-13T03:29:55.630Z,2.20
2018-08-13T03:31:01.656Z,2.00
2018-08-13T03:32:07.987Z,2.30
2018-08-13T03:33:14.391Z,1.85
2018-08-13T03:34:20.269Z,2.42
2018-08-13T03:35:26.607Z,1.95
2018-08-13T03:36:32.956Z,2.00
2018-08-13T03:37:38.879Z,2.20
2018-08-13T03:38:44.538Z,2.25
2018-08-13T03:39:50.174Z,2.05
2018-08-13T03:40:56.207Z,1.80
2018-08-13T03:42:02.108Z,1.83
2018-08-13T03:43:08.320Z,2.30
2018-08-13T03:44:14.658Z,2.00
2018-08-13T03:45:20.996Z,2.00
2018-08-13T03:46:26.605Z,2.83
2018-08-13T03:47:32.644Z,1.73
2018-08-13T03:48:38.551Z,2.05
2018-08-13T03:49:45.437Z,2.10
2018-08-13T03:50:51.054Z,1.60
2018-08-13T03:51:56.980Z,2.30
2018-08-13T03:53:02.297Z,1.80
2018-08-13T03:54:08.288Z,1.70
2018-08-13T03:55:14.585Z,1.90
2018-08-13T03:56:20.802Z,2.40
2018-08-13T03:57:27.665Z,2.12
2018-08-13T03:58:33.588Z,1.85
2018-08-13T03:59:39.609Z,2.37
2018-08-13T04:00:45.948Z,2.17
2018-08-13T04:01:51.728Z,2.03
2018-08-13T04:02:57.793Z,1.95
2018-08-13T04:04:03.870Z,1.90
2018-08-13T04:05:09.552Z,1.95
2018-08-13T04:06:15.677Z,2.30
2018-08-13T04:07:21.991Z,2.40
2018-08-13T04:08:27.943Z,2.80
2018-08-13T04:09:34.232Z,2.20
2018-08-13T04:10:39.785Z,2.45
2018-08-13T04:11:46.136Z,2.30
2018-08-13T04:12:51.899Z,2.28
2018-08-13T04:13:58.119Z,2.10
2018-08-13T04:15:04.416Z,2.22
2018-08-13T04:16:10.045Z,2.40
2018-08-13T04:17:15.973Z,2.37
2018-08-13T04:18:22.372Z,2.33
2018-08-13T04:19:28.317Z,2.22
2018-08-13T04:20:34.754Z,1.85
2018-08-13T04:21:40.968Z,2.37
2018-08-13T04:22:47.003Z,1.90
2018-08-13T04:23:52.960Z,1.80
2018-08-13T04:24:59.553Z,2.53
2018-08-13T04:26:05.895Z,2.65
2018-08-13T04:27:12.227Z,1.80
2018-08-13T04:28:18.532Z,1.70
2018-08-13T04:29:24.238Z,2.40
2018-08-13T04:30:30.238Z,2.10
2018-08-13T04:31:36.480Z,2.03
2018-08-13T04:32:42.432Z,3.00
2018-08-13T04:33:48.431Z,2.55
2018-08-13T04:34:55.360Z,2.20
2018-08-13T04:36:01.595Z,2.55
2018-08-13T04:37:07.473Z,2.67
2018-08-13T04:38:13.565Z,2.90
2018-08-13T04:39:19.954Z,2.97
2018-08-13T04:40:25.903Z,2.33
2018-08-13T04:41:32.257Z,2.35
2018-08-13T04:42:38.552Z,2.50
2018-08-13T04:43:44.505Z,2.67
2018-08-13T04:44:50.712Z,2.12
2018-08-13T04:45:57.316Z,2.60
2018-08-13T04:47:03.589Z,2.67
2018-08-13T04:48:09.469Z,3.05
2018-08-13T04:49:15.854Z,2.28
2018-08-13T04:50:21.812Z,2.80
2018-08-13T04:51:27.810Z,2.92
2018-08-13T04:52:33.837Z,2.78
2018-08-13T04:53:40.130Z,3.10
2018-08-13T04:54:47.343Z,2.75
2018-08-13T04:55:53.038Z,2.90
2018-08-13T04:56:58.367Z,3.35
2018-08-13T04:58:04.610Z,2.67
2018-08-13T04:59:10.252Z,2.70
2018-08-13T05:00:16.260Z,3.42
2018-08-13T05:01:22.949Z,3.12
2018-08-13T05:02:29.188Z,3.55
2018-08-13T05:03:35.435Z,3.30
2018-08-13T05:04:42.259Z,2.87
2018-08-13T05:05:48.552Z,3.20
2018-08-13T05:06:54.487Z,3.20
2018-08-13T05:08:00.859Z,2.85
2018-08-13T05:09:06.472Z,3.33
2018-08-13T05:10:12.792Z,3.90
2018-08-13T05:11:19.126Z,3.70
2018-08-13T05:12:25.201Z,3.30
2018-08-13T05:13:32.085Z,3.60
2018-08-13T05:14:38.512Z,2.85
2018-08-13T05:15:44.798Z,3.42
2018-08-13T05:16:50.918Z,3.62
2018-08-13T05:17:56.894Z,4.25
2018-08-13T05:19:02.975Z,3.40
2018-08-13T05:20:08.651Z,3.28
2018-08-13T05:21:14.888Z,3.90
2018-08-13T05:22:21.074Z,4.07
2018-08-13T05:23:28.041Z,4.15
2018-08-13T05:24:34.213Z,3.50
2018-08-13T05:25:40.332Z,4.53
2018-08-13T05:26:46.619Z,4.85
2018-08-13T05:27:52.135Z,4.93
2018-08-13T05:28:58.531Z,5.68
2018-08-13T05:30:04.249Z,5.32
2018-08-13T05:31:11.316Z,4.72
2018-08-13T05:32:18.038Z,4.53
2018-08-13T05:33:23.969Z,4.80
2018-08-13T05:34:29.495Z,5.18
2018-08-13T05:35:35.874Z,5.30
2018-08-13T05:36:42.107Z,4.50
2018-08-13T05:37:47.754Z,4.43
2018-08-13T05:38:54.101Z,4.85
2018-08-13T05:40:00.940Z,4.93
2018-08-13T05:41:07.624Z,5.05
2018-08-13T05:42:14.056Z,5.15
2018-08-13T05:43:20.483Z,5.68
2018-08-13T05:44:26.483Z,4.82
2018-08-13T05:45:44.864Z,5.28
2018-08-13T05:46:51.043Z,5.28
2018-08-13T05:47:56.938Z,4.93
2018-08-13T05:49:02.479Z,5.22
2018-08-13T05:50:14.295Z,5.40
2018-08-13T05:51:19.860Z,4.78
2018-08-13T05:52:25.765Z,4.68
2018-08-13T05:53:32.028Z,4.85
2018-08-13T05:54:37.892Z,4.20
2018-08-13T05:55:44.275Z,3.95
2018-08-13T05:56:50.333Z,3.70
2018-08-13T05:57:56.788Z,4.50
2018-08-13T05:59:02.784Z,3.85
2018-08-13T06:00:09.143Z,3.83
2018-08-13T06:01:14.795Z,4.00
2018-08-13T06:02:21.188Z,4.85
2018-08-13T06:03:27.302Z,4.60
2018-08-13T06:04:33.280Z,3.80
2018-08-13T06:05:39.650Z,3.35
2018-08-13T06:06:45.923Z,3.08
2018-08-13T06:07:52.147Z,3.83
2018-08-13T06:08:58.448Z,3.30
2018-08-13T06:10:03.982Z,3.80
2018-08-13T06:11:10.051Z,3.15
2018-08-13T06:12:18.362Z,3.22
2018-08-13T06:13:25.399Z,3.08
2018-08-13T06:14:30.959Z,3.00
2018-08-13T06:15:36.944Z,3.20
2018-08-13T06:16:42.837Z,2.97
2018-08-13T06:17:48.694Z,3.00
2018-08-13T06:18:54.400Z,2.70
2018-08-13T06:20:00.379Z,2.55
2018-08-13T06:21:05.999Z,2.65
2018-08-13T06:22:12.081Z,3.28
2018-08-13T06:23:18.310Z,2.47
2018-08-13T06:24:24.551Z,2.92
2018-08-13T06:25:30.561Z,2.10
2018-08-13T06:26:36.588Z,2.25
2018-08-13T06:27:42.386Z,2.03
2018-08-13T06:28:48.417Z,2.33
2018-08-13T06:29:54.003Z,2.60
2018-08-13T06:31:00.407Z,1.95
2018-08-13T06:32:06.016Z,2.47
2018-08-13T06:33:12.408Z,2.15
2018-08-13T06:34:19.327Z,2.12
2018-08-13T06:35:25.344Z,1.67
2018-08-13T06:36:31.744Z,2.05
2018-08-13T06:37:38.076Z,2.33
2018-08-13T06:38:43.785Z,1.50
2018-08-13T06:39:50.068Z,1.70
2018-08-13T06:40:56.420Z,2.03
2018-08-13T06:42:02.362Z,2.10
2018-08-13T06:43:08.038Z,2.30
2018-08-13T06:44:14.014Z,1.95
2018-08-13T06:45:19.831Z,2.10
2018-08-13T06:46:25.912Z,2.10
2018-08-13T06:47:32.237Z,2.30
2018-08-13T06:48:38.797Z,1.92
2018-08-13T06:49:45.059Z,1.70
2018-08-13T06:50:51.042Z,1.75
2018-08-13T06:51:57.379Z,2.25
2018-08-13T06:53:02.913Z,1.95
2018-08-13T06:54:08.545Z,2.03
2018-08-13T06:55:14.221Z,2.03
2018-08-13T06:56:19.800Z,2.37
2018-08-13T06:57:25.828Z,2.30
2018-08-13T06:58:32.169Z,1.80
2018-08-13T06:59:38.152Z,2.33
2018-08-13T07:00:43.915Z,2.00
2018-08-13T07:01:50.779Z,2.22
2018-08-13T07:02:56.846Z,2.20
2018-08-13T07:04:03.957Z,2.45
2018-08-13T07:05:09.257Z,2.53
2018-08-13T07:06:14.849Z,2.25
2018-08-13T07:07:20.865Z,2.25
2018-08-13T07:08:26.539Z,1.60
2018-08-13T07:09:32.855Z,1.67
2018-08-13T07:10:38.818Z,1.90
2018-08-13T07:11:44.561Z,2.30
2018-08-13T07:12:50.471Z,1.75
2018-08-13T07:13:56.432Z,1.70
2018-08-13T07:15:02.680Z,1.77
2018-08-13T07:16:09.245Z,1.40
2018-08-13T07:17:14.907Z,1.85
2018-08-13T07:18:20.509Z,1.62
2018-08-13T07:19:26.139Z,1.75
2018-08-13T07:20:32.420Z,1.98
2018-08-13T07:21:38.041Z,2.05
2018-08-13T07:22:43.684Z,2.00
2018-08-13T07:23:51.192Z,1.50
2018-08-13T07:24:57.434Z,1.50
2018-08-13T07:26:02.743Z,1.90
2018-08-13T07:27:08.799Z,1.60
2018-08-13T07:28:14.650Z,2.08
2018-08-13T07:29:20.959Z,2.08
2018-08-13T07:30:27.270Z,1.62
2018-08-13T07:31:32.862Z,1.65
2018-08-13T07:32:38.556Z,1.95
2018-08-13T07:33:45.176Z,2.00
2018-08-13T07:34:51.409Z,1.35
2018-08-13T07:35:57.321Z,1.80
2018-08-13T07:37:03.312Z,2.20
2018-08-13T07:38:08.994Z,2.25
2018-08-13T07:39:14.943Z,2.00
2018-08-13T07:40:21.155Z,1.70
2018-08-13T07:41:26.687Z,2.70
2018-08-13T07:42:32.781Z,2.40
2018-08-13T07:43:38.876Z,2.60
2018-08-13T07:44:44.590Z,2.50
2018-08-13T07:45:50.997Z,2.40
2018-08-13T07:46:56.952Z,2.87
2018-08-13T07:48:02.853Z,2.65
2018-08-13T07:49:08.249Z,1.87
2018-08-13T07:50:14.303Z,2.45
2018-08-13T07:51:20.352Z,2.10
2018-08-13T07:52:26.102Z,1.80
2018-08-13T07:53:32.319Z,2.40
2018-08-13T07:54:38.876Z,2.72
2018-08-13T07:55:47.419Z,2.10
2018-08-13T07:56:55.750Z,2.10
2018-08-13T07:58:03.715Z,1.90
2018-08-13T07:59:11.634Z,1.92
2018-08-13T08:00:19.200Z,1.98
2018-08-13T08:01:25.461Z,1.70
2018-08-13T08:02:32.308Z,1.70
2018-08-13T08:03:39.512Z,1.80
2018-08-13T08:04:46.365Z,1.80
2018-08-13T08:05:52.208Z,1.73
2018-08-13T08:06:58.249Z,1.62
2018-08-13T08:08:04.125Z,1.70
2018-08-13T08:09:10.418Z,2.10
2018-08-13T08:10:16.377Z,1.80
2018-08-13T08:11:21.899Z,1.75
2018-08-13T08:12:27.905Z,1.73
2018-08-13T08:13:33.950Z,1.90
2018-08-13T08:14:40.399Z,2.05
2018-08-13T08:15:46.589Z,2.30
2018-08-13T08:16:52.330Z,2.35
2018-08-13T08:17:58.248Z,1.98
2018-08-13T08:19:04.296Z,1.75
2018-08-13T08:20:09.910Z,1.70
2018-08-13T08:21:15.398Z,1.75
2018-08-13T08:22:21.069Z,1.70
2018-08-13T08:23:26.761Z,1.98
2018-08-13T08:24:32.805Z,2.25
2018-08-13T08:25:38.743Z,2.15
2018-08-13T08:26:44.762Z,2.30
2018-08-13T08:27:50.355Z,2.20
2018-08-13T08:28:56.700Z,2.10
2018-08-13T08:30:02.017Z,2.20
2018-08-13T08:31:07.076Z,2.20
2018-08-13T08:32:13.339Z,2.50
2018-08-13T08:33:18.911Z,2.50
2018-08-13T08:34:25.136Z,2.35
2018-08-13T08:35:31.125Z,2.22
2018-08-13T08:36:36.988Z,2.05
2018-08-13T08:37:42.668Z,2.12
2018-08-13T08:38:48.636Z,2.33
2018-08-13T08:39:54.705Z,2.13
2018-08-13T08:41:01.482Z,1.97
2018-08-13T08:42:07.141Z,1.83
2018-08-13T08:43:12.548Z,1.60
2018-08-13T08:44:17.900Z,1.83
2018-08-13T08:45:23.508Z,2.20
2018-08-13T08:46:29.153Z,2.03
2018-08-13T08:47:34.824Z,2.35
2018-08-13T08:48:40.446Z,2.23
2018-08-13T08:49:46.206Z,2.05
2018-08-13T08:50:52.248Z,1.90
2018-08-13T08:51:57.949Z,1.97
2018-08-13T08:53:03.739Z,1.60
2018-08-13T08:54:09.385Z,2.17
2018-08-13T08:55:15.705Z,2.20
2018-08-13T08:56:21.128Z,1.70
2018-08-13T08:57:26.417Z,2.17
2018-08-13T08:58:32.472Z,2.10
2018-08-13T08:59:38.104Z,2.00
2018-08-13T09:00:43.769Z,1.83
2018-08-13T09:01:49.868Z,1.60
2018-08-13T09:02:55.856Z,2.27
2018-08-13T09:04:01.783Z,1.80
2018-08-13T09:05:07.145Z,1.80
2018-08-13T09:06:12.733Z,1.63
2018-08-13T09:07:17.973Z,1.50
2018-08-13T09:08:23.256Z,1.83
2018-08-13T09:09:28.988Z,1.77
2018-08-13T09:10:34.962Z,1.67
2018-08-13T09:11:40.593Z,1.60
2018-08-13T09:12:45.641Z,1.60
2018-08-13T09:13:51.437Z,2.00
2018-08-13T09:14:57.080Z,1.40
2018-08-13T09:16:02.698Z,1.67
2018-08-13T09:17:08.423Z,1.50
2018-08-13T09:20:03.964Z,1.80
2018-08-13T09:21:20.809Z,1.83
2018-08-13T09:24:28.436Z,1.63
2018-08-13T09:27:53.396Z,1.33
2018-08-13T09:31:04.246Z,1.70
2018-08-13T09:32:34.336Z,1.70
2018-08-13T09:33:52.442Z,2.00
2018-08-13T09:34:57.409Z,1.47
2018-08-13T09:36:03.611Z,1.63
2018-08-13T09:37:09.342Z,1.97
2018-08-13T09:38:15.516Z,1.87
2018-08-13T09:39:22.693Z,1.63
2018-08-13T09:40:27.663Z,1.60
2018-08-13T09:41:33.373Z,1.60
2018-08-13T09:42:38.785Z,1.70
2018-08-13T09:43:44.247Z,1.47
2018-08-13T09:44:49.880Z,2.03
2018-08-13T09:45:55.935Z,1.90
2018-08-13T09:47:01.581Z,1.70
2018-08-13T09:48:06.635Z,1.60
2018-08-13T09:49:12.977Z,1.80
2018-08-13T09:50:18.303Z,1.70
2018-08-13T09:51:23.416Z,1.73
2018-08-13T09:52:29.007Z,1.50
2018-08-13T09:53:34.984Z,1.60
2018-08-13T09:54:40.640Z,1.50
2018-08-13T09:55:47.693Z,2.07
2018-08-13T09:56:53.832Z,2.10
2018-08-13T09:58:00.028Z,1.57
2018-08-13T09:59:05.751Z,1.63
2018-08-13T10:00:11.154Z,1.67
2018-08-13T10:01:17.039Z,1.93
2018-08-13T10:02:23.141Z,1.70
2018-08-13T10:03:28.544Z,1.60
2018-08-13T10:04:34.948Z,1.60
2018-08-13T10:05:40.937Z,1.83
2018-08-13T10:06:47.055Z,1.77
2018-08-13T10:07:53.367Z,1.40
2018-08-13T10:08:59.127Z,1.40
2018-08-13T10:10:05.844Z,1.47
2018-08-13T10:11:11.268Z,1.30
2018-08-13T10:12:18.189Z,1.90
2018-08-13T10:13:23.300Z,1.47
2018-08-13T10:14:28.795Z,1.90
2018-08-13T10:15:34.708Z,1.40
2018-08-13T10:16:41.077Z,1.40
2018-08-13T10:17:46.397Z,1.53
2018-08-13T10:18:52.172Z,1.50
2018-08-13T10:19:58.068Z,1.63
2018-08-13T10:21:04.209Z,1.53
2018-08-13T10:22:09.891Z,1.30
2018-08-13T10:23:15.995Z,1.20
2018-08-13T10:24:22.001Z,1.53
2018-08-13T10:25:27.747Z,1.43
2018-08-13T10:26:33.128Z,1.80
2018-08-13T10:27:39.025Z,1.30
2018-08-13T10:28:45.844Z,1.40
2018-08-13T10:29:51.984Z,1.20
2018-08-13T10:30:57.953Z,1.50
2018-08-13T10:32:03.562Z,1.40
2018-08-13T10:33:09.043Z,1.47
2018-08-13T10:34:15.002Z,1.30
2018-08-13T10:35:20.353Z,1.10
2018-08-13T10:36:26.329Z,1.30
2018-08-13T10:37:32.219Z,1.30
2018-08-13T10:38:39.767Z,1.67
2018-08-13T10:39:47.038Z,1.30
2018-08-13T10:40:53.727Z,1.57
2018-08-13T10:41:59.360Z,1.47
2018-08-13T10:43:04.772Z,1.20
2018-08-13T10:44:10.831Z,1.63
2018-08-13T10:45:16.449Z,1.30
2018-08-13T10:46:22.430Z,1.50
2018-08-13T10:47:28.102Z,1.20
2018-08-13T10:48:34.240Z,1.40
2018-08-13T10:49:39.895Z,1.30
2018-08-13T10:50:46.116Z,1.63
2018-08-13T10:51:51.445Z,1.63
2018-08-13T10:52:57.073Z,1.40
2018-08-13T10:54:02.924Z,1.33
2018-08-13T10:55:08.308Z,1.17
2018-08-13T10:56:13.933Z,1.23
2018-08-13T10:57:19.531Z,1.40
2018-08-13T10:58:24.903Z,1.40
2018-08-13T10:59:30.875Z,1.50
2018-08-13T11:00:36.544Z,1.40
2018-08-13T11:01:42.508Z,1.70
2018-08-13T11:02:48.536Z,1.63
2018-08-13T11:03:54.131Z,1.43
2018-08-13T11:05:00.100Z,1.50
2018-08-13T11:06:05.981Z,1.40
2018-08-13T11:07:12.105Z,1.47
2018-08-13T11:08:17.747Z,1.63
2018-08-13T11:09:24.114Z,1.77
2018-08-13T11:10:29.931Z,1.50
2018-08-13T11:11:35.879Z,1.90
2018-08-13T11:12:41.312Z,1.30
2018-08-13T11:13:47.517Z,1.53
2018-08-13T11:14:53.324Z,1.60
2018-08-13T11:15:59.065Z,1.30
2018-08-13T11:17:05.245Z,1.70
2018-08-13T11:18:12.247Z,1.80
2018-08-13T11:19:18.483Z,1.33
2018-08-13T11:20:23.905Z,1.70
2018-08-13T11:21:29.624Z,1.50
2018-08-13T11:22:35.029Z,2.10
2018-08-13T11:23:40.345Z,1.80
2018-08-13T11:24:45.973Z,1.70
2018-08-13T11:25:51.678Z,1.50
2018-08-13T11:26:57.065Z,1.90
2018-08-13T11:28:02.659Z,1.73
2018-08-13T11:29:08.019Z,1.70
2018-08-13T11:30:14.009Z,1.60
2018-08-13T11:31:19.887Z,1.77
2018-08-13T11:32:29.795Z,1.50
2018-08-13T11:33:44.660Z,1.30
2018-08-13T11:34:54.735Z,1.30
2018-08-13T11:36:10.170Z,1.80
2018-08-13T11:37:20.222Z,2.20
2018-08-13T11:38:25.884Z,1.73
2018-08-13T11:39:35.581Z,1.30
2018-08-13T11:40:43.051Z,1.70
2018-08-13T11:41:49.172Z,1.60
2018-08-13T11:42:55.390Z,1.40
2018-08-13T11:44:01.449Z,1.67
2018-08-13T11:45:06.716Z,1.60
2018-08-13T11:46:13.944Z,1.90
2018-08-13T11:47:19.870Z,1.90
2018-08-13T11:48:25.603Z,1.50
2018-08-13T11:49:31.350Z,1.27
2018-08-13T11:50:36.775Z,1.40
2018-08-13T11:51:43.698Z,1.40
2018-08-13T11:52:49.635Z,1.27
2018-08-13T11:53:55.433Z,1.40
2018-08-13T11:55:00.651Z,1.70
2018-08-13T11:56:07.458Z,1.60
2018-08-13T11:57:13.473Z,1.50
2018-08-13T11:58:19.683Z,1.80
2018-08-13T11:59:25.415Z,1.63
2018-08-13T12:00:31.119Z,1.40
2018-08-13T12:01:36.956Z,1.60
2018-08-13T12:02:42.252Z,1.70
2018-08-13T12:03:47.864Z,1.30
2018-08-13T12:04:53.708Z,1.70
2018-08-13T12:05:59.406Z,1.50
2018-08-13T12:07:05.048Z,1.43
2018-08-13T12:08:10.880Z,1.33
2018-08-13T12:09:16.496Z,1.23
2018-08-13T12:10:22.106Z,1.40
2018-08-13T12:11:28.264Z,1.30
2018-08-13T12:12:34.679Z,1.43
2018-08-13T12:13:40.428Z,1.40
2018-08-13T12:14:46.203Z,2.03
2018-08-13T12:15:51.876Z,1.43
2018-08-13T12:16:57.976Z,1.20
2018-08-13T12:18:03.886Z,1.40
2018-08-13T12:19:09.950Z,1.40
2018-08-13T12:20:15.308Z,1.67
2018-08-13T12:21:20.872Z,1.30
2018-08-13T12:22:26.280Z,1.20
2018-08-13T12:23:31.821Z,1.30
2018-08-13T12:24:37.560Z,1.50
2018-08-13T12:25:43.848Z,1.10
2018-08-13T12:26:49.724Z,1.57
2018-08-13T12:27:55.772Z,1.50
2018-08-13T12:29:01.641Z,1.43
2018-08-13T12:30:07.266Z,1.60
2018-08-13T12:31:13.665Z,1.40
2018-08-13T12:32:19.794Z,1.23
2018-08-13T12:33:25.883Z,1.37
2018-08-13T12:34:31.980Z,1.70
2018-08-13T12:35:37.657Z,1.20
2018-08-13T12:36:43.355Z,1.47
2018-08-13T12:37:49.327Z,1.30
2018-08-13T12:38:55.630Z,1.20
2018-08-13T12:40:02.048Z,1.23
2018-08-13T12:41:08.567Z,1.50
2018-08-13T12:42:14.314Z,1.20
2018-08-13T12:43:19.850Z,1.23
2018-08-13T12:44:25.932Z,1.50
2018-08-13T12:45:32.019Z,1.20
2018-08-13T12:46:38.438Z,1.17
2018-08-13T12:47:44.119Z,1.23
2018-08-13T12:48:50.148Z,1.40
2018-08-13T12:49:55.797Z,1.30
2018-08-13T12:51:00.886Z,1.40
2018-08-13T12:52:06.479Z,1.50
2018-08-13T12:53:12.125Z,1.30
2018-08-13T12:54:18.129Z,1.27
2018-08-13T12:55:23.444Z,1.40
2018-08-13T12:56:29.516Z,1.20
2018-08-13T12:57:34.951Z,1.50
2018-08-13T12:58:40.903Z,1.10
2018-08-13T12:59:46.920Z,1.40
2018-08-13T13:00:52.606Z,1.30
2018-08-13T13:01:58.834Z,1.40
2018-08-13T13:03:04.112Z,1.90
2018-08-13T13:04:09.924Z,1.43
2018-08-13T13:05:15.332Z,0.90
2018-08-13T13:06:21.759Z,1.50
2018-08-13T13:07:27.821Z,1.37
2018-08-13T13:08:33.474Z,1.10
2018-08-13T13:09:39.088Z,1.30
2018-08-13T13:10:44.337Z,1.43
2018-08-13T13:11:49.452Z,1.30
2018-08-13T13:12:55.510Z,1.17
2018-08-13T13:14:01.249Z,1.03
2018-08-13T13:15:06.305Z,1.30
2018-08-13T13:16:11.892Z,1.60
2018-08-13T13:17:18.281Z,1.50
2018-08-13T13:18:24.136Z,1.35
2018-08-13T13:19:30.604Z,1.30
2018-08-13T13:20:36.642Z,1.37
2018-08-13T13:21:42.595Z,1.50
2018-08-13T13:22:47.641Z,1.30
2018-08-13T13:23:53.644Z,1.43
2018-08-13T13:25:00.563Z,1.92
2018-08-13T13:26:06.468Z,1.62
2018-08-13T13:27:12.768Z,1.20
2018-08-13T13:28:19.908Z,1.60
2018-08-13T13:29:26.302Z,1.70
2018-08-13T13:30:32.233Z,1.87
2018-08-13T13:31:37.916Z,1.52
2018-08-13T13:32:43.635Z,1.90
2018-08-13T13:33:49.535Z,1.70
2018-08-13T13:34:55.910Z,1.42
2018-08-13T13:36:03.017Z,1.42
2018-08-13T13:37:09.467Z,1.77
2018-08-13T13:38:15.879Z,1.37
2018-08-13T13:39:22.364Z,1.90
2018-08-13T13:40:28.225Z,1.65
2018-08-13T13:41:34.325Z,1.77
2018-08-13T13:42:40.606Z,1.40
2018-08-13T13:43:46.826Z,1.80
2018-08-13T13:44:53.641Z,1.77
2018-08-13T13:45:59.277Z,1.65
2018-08-13T13:47:05.354Z,1.40
2018-08-13T13:48:11.611Z,1.92
2018-08-13T13:49:17.064Z,2.08
2018-08-13T13:50:25.011Z,1.50
2018-08-13T13:51:34.985Z,1.83
2018-08-13T13:52:43.576Z,1.48
2018-08-13T13:53:49.850Z,1.52
2018-08-13T13:54:59.425Z,1.50
2018-08-13T13:56:05.104Z,1.90
2018-08-13T13:57:11.306Z,2.03
2018-08-13T13:58:19.402Z,1.70
2018-08-13T13:59:26.687Z,1.90
2018-08-13T14:00:34.232Z,1.95
2018-08-13T14:01:41.436Z,1.65
2018-08-13T14:02:48.501Z,1.62
2018-08-13T14:03:55.673Z,1.70
2018-08-13T14:05:03.116Z,2.00
2018-08-13T14:06:09.836Z,1.90
2018-08-13T14:07:16.627Z,1.95
2018-08-13T14:08:23.042Z,1.58
2018-08-13T14:09:30.444Z,1.90
2018-08-13T14:10:39.007Z,2.08
2018-08-13T14:11:45.083Z,1.90
2018-08-13T14:12:50.943Z,1.98
2018-08-13T14:13:58.262Z,2.10
2018-08-13T14:15:06.046Z,2.10
2018-08-13T14:16:13.852Z,2.50
2018-08-13T14:17:22.118Z,2.20
2018-08-13T14:18:28.778Z,2.33
2018-08-13T14:19:36.942Z,2.47
2018-08-13T14:20:42.174Z,1.95
2018-08-13T14:21:49.592Z,2.50
2018-08-13T14:22:56.638Z,2.58
2018-08-13T14:24:04.036Z,2.50
2018-08-13T14:25:10.665Z,2.10
2018-08-13T14:26:17.782Z,2.20
2018-08-13T14:27:26.250Z,2.10
2018-08-13T14:28:33.423Z,2.10
2018-08-13T14:29:40.139Z,2.55
2018-08-13T14:30:47.616Z,3.47
2018-08-13T14:31:56.770Z,2.25
2018-08-13T14:33:03.814Z,2.10
2018-08-13T14:34:09.896Z,2.30
2018-08-13T14:35:16.340Z,1.90
2018-08-13T14:36:24.080Z,2.53
2018-08-13T14:37:31.347Z,2.10
2018-08-13T14:38:39.310Z,2.60
2018-08-13T14:39:47.129Z,2.40
2018-08-13T14:40:54.757Z,2.30
2018-08-13T14:42:01.236Z,2.50
2018-08-13T14:43:09.456Z,2.70
2018-08-13T14:44:16.106Z,2.30
2018-08-13T14:45:24.860Z,2.33
2018-08-13T14:46:31.528Z,2.08
2018-08-13T14:47:37.915Z,2.22
2018-08-13T14:48:46.402Z,2.62
2018-08-13T14:49:53.545Z,2.72